• Join FlightAware (Why Join?)
  • Login
  • US Flag 
09:02AM EDT


 

Airport Tracker/Info


-or-


 

Live Flight TrackerFlight Track Log ✈ UPS2592 ✈ 25-Mar-2014 ✈ KSDF - KBIL

Flight Track Log - Related Links

Times and Time Zones

All times are in EDT time to prevent confusion due to time zone crossing. See the UPS2592 flight status page for this flight to view local times or setup timezone preferences in your user account.

Time Position Orientation Groundspeed Altitude Reporting Facility
EDT Latitude Longitude Course Direction KTS MPH feet Rate Location/Type
04:28PM 38.2408 -85.7812 329° Northwest 232 267 3,900  Level FlightAware ADS-B (KBRY)
04:29PM 38.3002 -85.8181 343° North 233 268 8,000 3,120 Climbing FlightAware ADS-B (KBRY)
04:30PM 38.3641 -85.8441 342° North 272 313 10,200 1,860 Climbing FlightAware ADS-B (KBRY)
04:31PM 38.4439 -85.8769 342° North 334 384 11,700 2,220 Climbing FlightAware ADS-B (KBRY)
04:32PM 38.5389 -85.9162 342° North 346 398 14,800 2,760 Climbing FlightAware ADS-B (KBRY)
04:33PM 38.6333 -85.9560 334° Northwest 354 407 17,500 2,640 Climbing FlightAware ADS-B (KBRY)
04:34PM 38.6934 -86.0406 305° West 354 407 20,100 2,460 Climbing FlightAware ADS-B (KBRY)
04:35PM 38.7498 -86.1431 305° West 360 414 22,400 2,100 Climbing FlightAware ADS-B
04:36PM 38.7821 -86.2022 305° West 365 420 23,300 3,000 Climbing FlightAware ADS-B
04:36PM 38.8227 -86.2759 305° West 370 426 26,000 2,160 Climbing FlightAware ADS-B (KBRY)
04:37PM 38.7944 -86.2246 305° West 374 430 26,000 1,200 Level FlightAware ADS-B
04:39PM 38.9673 -86.5404 305° West 378 435 29,600 1,320 Climbing FlightAware ADS-B
04:40PM 39.0253 -86.6469 305° West 377 434 30,100 1,020 Climbing Indianapolis Center
04:41PM 39.0853 -86.7578 305° West 377 434 31,300 540 Climbing Indianapolis Center
04:47PM 39.4950 -87.4331 316° Northwest 376 433 34,000 360 Climbing FlightAware ADS-B
04:48PM 39.5468 -87.4987 315° West 375 432 34,000  Level FlightAware ADS-B
04:48PM 39.5825 -87.5490 305° West 375 432 34,000  Level FlightAware ADS-B
04:49PM 39.6208 -87.6243 303° West 374 430 34,000  Level FlightAware ADS-B
04:49PM 39.6513 -87.6846 303° West 375 432 34,000  Level FlightAware ADS-B
04:50PM 39.6785 -87.7389 303° West 377 434 34,000  Level FlightAware ADS-B
04:51PM 39.7187 -87.8186 303° West 378 435 34,000  Level FlightAware ADS-B
04:51PM 39.7467 -87.8741 303° West 376 433 34,000  Level FlightAware ADS-B
04:52PM 39.7934 -87.9670 303° West 376 433 34,000  Level FlightAware ADS-B
04:53PM 39.8326 -88.0453 303° West 376 433 34,000  Level FlightAware ADS-B
04:53PM 39.8645 -88.1093 303° West 375 432 34,000  Level FlightAware ADS-B
04:54PM 39.8977 -88.1759 303° West 374 430 34,000  Level FlightAware ADS-B
04:54PM 39.9253 -88.2316 303° West 373 429 34,000  Level FlightAware ADS-B
04:55PM 39.9558 -88.2928 303° West 372 428 34,000  Level FlightAware ADS-B
04:55PM 39.9912 -88.3640 303° West 373 429 34,000  Level FlightAware ADS-B
04:56PM 40.0220 -88.4261 303° West 371 427 34,000  Level FlightAware ADS-B
04:56PM 40.0495 -88.4821 303° West 371 427 34,000  Level FlightAware ADS-B
04:57PM 40.0853 -88.5550 303° West 371 427 34,000  Level FlightAware ADS-B
04:58PM 40.1481 -88.6827 303° West 369 425 34,000  Level FlightAware ADS-B
05:00PM 40.2018 -88.8042 298° West 370 426 34,000  Level FlightAware ADS-B
05:01PM 40.2892 -89.0238 297° West 369 425 34,000  Level FlightAware ADS-B (KMDW)
05:02PM 40.3299 -89.1266 298° West 371 427 34,000  Level FlightAware ADS-B (KMDW)
05:03PM 40.3412 -89.1546 298° West 375 432 34,000  Level FlightAware ADS-B (KMDW)
05:04PM 40.3951 -89.2897 297° West 376 433 34,000  Level FlightAware ADS-B (KMDW)
05:05PM 40.4786 -89.4993 305° West 363 418 34,000  Level FlightAware ADS-B
05:07PM 40.3951 -89.2897 299° West 362 417 34,000  Level FlightAware ADS-B (KMDW)
05:09PM 40.5196 -89.5651 297° West 360 414 34,000  Level FlightAware ADS-B
05:11PM 40.7643 -90.1438 297° West 353 406 34,000  Level FlightAware ADS-B
05:11PM 40.7878 -90.2056 297° West 356 410 34,000  Level Chicago Center
05:12PM 40.8328 -90.3247 297° West 352 405 34,000  Level Chicago Center
05:14PM 40.8758 -90.4378 297° West 347 399 34,000  Level Chicago Center
05:15PM 40.9181 -90.5489 297° West 341 392 34,000  Level Chicago Center
05:16PM 40.9597 -90.6589 297° West 339 390 34,000  Level Chicago Center
05:17PM 41.0019 -90.7708 297° West 339 390 34,000  Level Chicago Center
05:18PM 41.0519 -90.9047 296° West 339 390 34,000  Level Chicago Center
05:19PM 41.0936 -91.0167 296° West 339 390 34,000  Level Chicago Center
05:26PM 41.3895 -91.8233 296° West 345 397 34,000  Level FlightAware ADS-B
05:26PM 41.4176 -91.9013 296° West 345 397 34,000  Level FlightAware ADS-B
05:27PM 41.4502 -91.9915 296° West 348 400 34,000  Level FlightAware ADS-B
05:28PM 41.4860 -92.0910 296° West 350 403 34,000  Level FlightAware ADS-B
05:29PM 41.5118 -92.1632 295° West 351 404 34,000  Level FlightAware ADS-B
05:29PM 41.5341 -92.2258 295° West 350 403 34,000  Level FlightAware ADS-B
05:30PM 41.5630 -92.3070 296° West 349 402 34,000  Level FlightAware ADS-B
05:30PM 41.5828 -92.3630 295° West 347 399 34,000  Level FlightAware ADS-B
05:32PM 41.6578 -92.5750 295° West 350 403 34,000  Level FlightAware ADS-B
05:33PM 41.6848 -92.6515 295° West 351 404 34,000  Level FlightAware ADS-B
05:34PM 41.7121 -92.7296 295° West 351 404 34,000  Level FlightAware ADS-B
05:34PM 41.7352 -92.7954 295° West 351 404 34,000  Level FlightAware ADS-B
05:35PM 41.7896 -92.9517 295° West 352 405 34,000  Level FlightAware ADS-B
05:37PM 41.8505 -93.1271 295° West 352 405 34,000  Level FlightAware ADS-B
05:37PM 41.8704 -93.1848 295° West 351 404 34,000  Level FlightAware ADS-B
05:38PM 41.9007 -93.2729 295° West 349 402 34,000  Level FlightAware ADS-B
05:43PM 42.1138 -93.9003 294° West 353 406 34,000  Level FlightAware ADS-B (KFOD)
05:45PM 42.1603 -94.0398 294° West 355 409 34,000  Level FlightAware ADS-B (KFOD)
05:45PM 42.1888 -94.1246 294° West 356 410 34,000  Level FlightAware ADS-B (KFOD)
05:46PM 42.2118 -94.1938 294° West 357 411 34,000  Level FlightAware ADS-B (KFOD)
05:47PM 42.2429 -94.2879 294° West 357 411 34,000  Level FlightAware ADS-B (KFOD)
05:47PM 42.2731 -94.3793 294° West 357 411 34,000  Level FlightAware ADS-B (KFOD)
05:48PM 42.2933 -94.4403 294° West 357 411 34,000  Level FlightAware ADS-B (KFOD)
05:49PM 42.3236 -94.5327 294° West 357 411 34,000  Level FlightAware ADS-B (KFOD)
05:49PM 42.3529 -94.6226 294° West 356 410 34,000  Level FlightAware ADS-B (KFOD)
05:50PM 42.3696 -94.6732 294° West 356 410 34,000  Level FlightAware ADS-B (KFOD)
05:50PM 42.3983 -94.7615 294° West 356 410 34,000  Level FlightAware ADS-B
05:51PM 42.4038 -94.7784 294° West 357 411 34,000  Level FlightAware ADS-B
05:52PM 42.4236 -94.8395 294° West 357 411 34,000  Level FlightAware ADS-B
05:53PM 42.4888 -95.0412 294° West 359 413 34,000  Level FlightAware ADS-B
05:53PM 42.5080 -95.1010 294° West 360 414 34,000  Level FlightAware ADS-B
05:54PM 42.5134 -95.1178 293° West 359 413 34,000  Level FlightAware ADS-B
05:55PM 42.5639 -95.2761 293° West 359 413 34,000  Level FlightAware ADS-B
05:58PM 42.6927 -95.6837 293° West 355 409 34,000  Level FlightAware ADS-B
05:59PM 42.7256 -95.7889 293° West 355 409 34,000  Level Minneapolis Center
06:00PM 42.7642 -95.9125 293° West 355 409 34,000  Level Minneapolis Center
06:01PM 42.8103 -96.0614 293° West 356 410 34,000  Level Minneapolis Center
06:02PM 42.8486 -96.1856 293° West 356 410 34,000  Level Minneapolis Center
06:03PM 42.8867 -96.3097 293° West 356 410 34,000  Level Minneapolis Center
06:04PM 42.9250 -96.4347 293° West 356 410 34,000  Level Minneapolis Center
06:05PM 42.9631 -96.5603 293° West 357 411 34,000  Level Minneapolis Center
06:06PM 43.0019 -96.6886 293° West 358 412 34,000  Level Minneapolis Center
06:07PM 43.0389 -96.8117 292° West 358 412 34,000  Level Minneapolis Center
06:08PM 43.0844 -96.9631 292° West 358 412 34,000  Level Minneapolis Center
06:09PM 43.1219 -97.0900 292° West 359 413 34,000  Level Minneapolis Center
06:10PM 43.1597 -97.2169 292° West 359 413 34,000  Level Minneapolis Center
06:11PM 43.1972 -97.3436 292° West 359 413 34,000  Level Minneapolis Center
06:12PM 43.2344 -97.4711 292° West 360 414 34,000  Level Minneapolis Center
06:13PM 43.2717 -97.5989 292° West 360 414 34,000  Level Minneapolis Center
06:14PM 43.3092 -97.7275 292° West 361 415 34,000  Level Minneapolis Center
06:15PM 43.3464 -97.8567 292° West 362 417 34,000  Level Minneapolis Center
06:16PM 43.3911 -98.0119 292° West 363 418 34,000  Level Minneapolis Center
06:18PM 43.4281 -98.1417 291° West 364 419 34,000  Level Minneapolis Center
06:19PM 43.4650 -98.2714 291° West 364 419 34,000  Level Minneapolis Center
06:20PM 43.5017 -98.4017 291° West 365 420 34,000  Level Minneapolis Center
06:21PM 43.5386 -98.5328 291° West 366 421 34,000  Level Minneapolis Center
06:22PM 43.5806 -98.6825 291° West 367 422 34,000  Level Minneapolis Center
06:23PM 43.6172 -98.8147 291° West 367 422 34,000  Level Minneapolis Center
06:24PM 43.6539 -98.9464 291° West 368 423 34,000  Level Minneapolis Center
06:25PM 43.6900 -99.0789 291° West 368 423 34,000  Level Minneapolis Center
06:26PM 43.7275 -99.2150 291° West 370 426 34,000  Level Minneapolis Center
06:27PM 43.7631 -99.3456 291° West 370 426 34,000  Level Minneapolis Center
06:28PM 43.8064 -99.5061 291° West 371 427 34,000  Level Minneapolis Center
06:29PM 43.8428 -99.6406 291° West 372 428 34,000  Level Minneapolis Center
06:30PM 43.8786 -99.7753 290° West 372 428 34,000  Level Minneapolis Center
06:31PM 43.9144 -99.9103 290° West 373 429 34,000  Level Minneapolis Center
06:32PM 43.9503 -100.0458 290° West 373 429 34,000  Level Minneapolis Center
06:33PM 43.9861 -100.1817 290° West 374 430 34,000  Level Minneapolis Center
06:34PM 44.0289 -100.3450 290° West 374 430 34,000  Level Minneapolis Center
06:35PM 44.0650 -100.4844 290° West 375 432 34,000  Level Minneapolis Center
06:36PM 44.0994 -100.6181 290° West 375 432 34,000  Level Minneapolis Center
06:37PM 44.1344 -100.7550 290° West 375 432 34,000  Level Minneapolis Center
06:38PM 44.1697 -100.8931 290° West 376 433 34,000  Level Minneapolis Center
06:39PM 44.2050 -101.0317 290° West 378 435 34,000  Level Minneapolis Center
06:40PM 44.2400 -101.1703 289° West 378 435 34,000  Level Minneapolis Center
06:41PM 44.2817 -101.3369 289° West 379 436 34,000  Level Minneapolis Center
06:42PM 44.3167 -101.4775 289° West 381 438 34,000  Level Minneapolis Center
06:43PM 44.3511 -101.6175 289° West 381 438 34,000  Level Minneapolis Center
06:44PM 44.3861 -101.7581 289° West 382 440 34,000  Level Minneapolis Center
06:45PM 44.4203 -101.8989 289° West 382 440 34,000  Level Minneapolis Center
06:46PM 44.4542 -102.0394 289° West 382 440 34,000  Level Minneapolis Center
06:47PM 44.4953 -102.2086 289° West 383 441 34,000  Level Minneapolis Center
06:49PM 44.5292 -102.3508 289° West 384 442 34,000  Level Minneapolis Center
06:50PM 44.5631 -102.4928 289° West 384 442 34,000  Level Minneapolis Center
06:51PM 44.5967 -102.6344 288° West 384 442 34,000  Level Minneapolis Center
06:52PM 44.6297 -102.7758 288° West 383 441 34,000  Level Minneapolis Center
06:53PM 44.6631 -102.9181 288° West 384 442 34,000  Level Minneapolis Center
06:54PM 44.7025 -103.0892 288° West 384 442 34,000  Level Minneapolis Center
06:55PM 44.7353 -103.2314 288° West 384 442 34,000  Level Minneapolis Center
06:56PM 44.7681 -103.3750 288° West 385 443 34,000  Level Minneapolis Center
06:57PM 44.8008 -103.5192 288° West 386 444 34,000  Level Minneapolis Center
06:58PM 44.8347 -103.6675 288° West 386 444 34,000  Level Salt Lake Center
06:59PM 44.8669 -103.8069 288° West 387 445 34,000  Level Salt Lake Center
07:00PM 44.8981 -103.9469 287° West 389 448 34,000  Level Salt Lake Center
07:01PM 44.9336 -104.1114 287° West 390 449 34,000  Level Salt Lake Center
07:02PM 44.9658 -104.2533 288° West 392 451 34,000  Level Salt Lake Center
07:03PM 45.0014 -104.4164 287° West 392 451 34,000  Level Salt Lake Center
07:04PM 45.0314 -104.5603 286° West 394 453 34,000  Level Salt Lake Center
07:05PM 45.0639 -104.7075 287° West 396 456 34,000  Level Salt Lake Center
07:06PM 45.0953 -104.8569 287° West 397 457 34,000  Level Salt Lake Center
07:07PM 45.1267 -105.0047 287° West 396 456 34,000  Level Salt Lake Center
07:08PM 45.1647 -105.1828 287° West 396 456 34,000  Level Salt Lake Center
07:09PM 45.1947 -105.3331 286° West 396 456 34,000  Level Salt Lake Center
07:10PM 45.2261 -105.4833 287° West 397 457 34,000  Level Salt Lake Center
07:11PM 45.2572 -105.6339 286° West 398 458 34,000  Level Salt Lake Center
07:12PM 45.2875 -105.7842 286° West 399 459 34,000  Level Salt Lake Center
07:13PM 45.3172 -105.9319 286° West 397 457 34,000  Level Salt Lake Center
07:14PM 45.3467 -106.0803 286° West 395 455 34,000  Level Salt Lake Center
07:15PM 45.3833 -106.2592 286° West 395 455 34,000  Level Salt Lake Center
07:16PM 45.4125 -106.4094 286° West 395 455 34,000  Level Salt Lake Center
07:17PM 45.4408 -106.5589 285° West 395 455 34,000  Level Salt Lake Center
07:18PM 45.4714 -106.7092 286° West 395 455 34,000 -1,380 Level Salt Lake Center
07:19PM 45.4989 -106.8594 285° West 395 455 31,200 -2,640 Descending Salt Lake Center
07:20PM 45.5269 -107.0119 285° West 396 456 28,600 -2,640 Descending Salt Lake Center
07:21PM 45.5575 -107.1636 286° West 399 459 25,800 -2,940 Descending Salt Lake Center
07:22PM 45.5897 -107.3353 285° West 371 427 22,600 -3,000 Descending Salt Lake Center
07:23PM 45.6153 -107.4725 285° West 363 418 19,700 -2,820 Descending Salt Lake Center
07:24PM 45.6408 -107.6106 285° West 352 405 16,900 -1,920 Descending Salt Lake Center
07:25PM 45.6689 -107.7344 288° West 338 389 15,800 -1,860 Descending Salt Lake Center
07:26PM 45.7153 -107.8597 298° West 336 387 13,100 -2,220 Descending Salt Lake Center
07:27PM 45.7569 -107.9728 298° West 328 377 11,300 -1,500 Descending Salt Lake Center
07:28PM 45.8036 -108.0936 299° West 325 374 10,100 -840 Descending Salt Lake Center
07:30PM 45.8358 -108.1931 295° West 279 321 9,600 -1,080 Descending Salt Lake Center
07:31PM 45.8653 -108.2875 294° West 266 306 7,900 -1,680 Descending Salt Lake Center
07:32PM 45.8997 -108.3897 296° West 266 306 6,200 -1,080 Descending Salt Lake Center
07:33PM 45.9206 -108.4753 289° West 224 258 5,800 -360 Descending Salt Lake Center
07:34PM 45.9197 -108.5528 269° West 181 208 5,500 -180 Descending Salt Lake Center
07:35PM 45.9167 -108.6208 266° West 178 205 5,500  Level Salt Lake Center
07:36PM 45.8797 -108.6667 221° Southwest 168 193 5,500 -300 Level Salt Lake Center
07:37PM 45.8408 -108.6517 165° South 142 163 5,000 -600 Descending Salt Lake Center
07:38PM 45.8250 -108.5983 113° Southeast 137 158 4,300 -720 Descending Salt Lake Center
07:39PM 45.8111 -108.5489 112° Southeast 136 157 3,600 -720 Descending Salt Lake Center